createdAt,value
2022-10-04T00:01:54.991Z,28.77
2022-10-04T00:04:52.685Z,28.88
2022-10-04T00:07:27.833Z,28.09
2022-10-04T00:10:23.550Z,28.09
2022-10-04T00:12:59.962Z,28.30
2022-10-04T00:15:38.480Z,29.42
2022-10-04T00:18:18.129Z,29.08
2022-10-04T00:20:54.481Z,29.13
2022-10-04T00:23:27.415Z,29.23
2022-10-04T00:26:00.354Z,29.28
2022-10-04T00:28:43.026Z,29.21
2022-10-04T00:31:28.057Z,29.21
2022-10-04T00:34:17.326Z,28.71
2022-10-04T00:36:54.305Z,28.18
2022-10-04T00:39:35.625Z,28.60
2022-10-04T00:42:19.871Z,28.61
2022-10-04T00:44:57.925Z,28.62
2022-10-04T00:47:46.229Z,28.84
2022-10-04T00:50:31.840Z,28.83
2022-10-04T00:53:08.561Z,28.42
2022-10-04T00:56:04.238Z,28.33
2022-10-04T00:59:09.384Z,28.36
2022-10-04T01:01:40.274Z,28.41
2022-10-04T01:04:38.041Z,27.74
2022-10-04T01:07:10.040Z,27.94
2022-10-04T01:09:49.455Z,27.79
2022-10-04T01:12:45.751Z,27.65
2022-10-04T01:15:27.805Z,27.78
2022-10-04T01:18:30.139Z,27.05
2022-10-04T01:21:18.022Z,26.41
2022-10-04T01:23:55.420Z,26.37
2022-10-04T01:26:31.155Z,25.61
2022-10-04T01:29:03.408Z,25.57
2022-10-04T01:31:35.330Z,25.74
2022-10-04T01:34:06.407Z,25.48
2022-10-04T01:36:38.485Z,25.19
2022-10-04T01:39:08.636Z,25.00
2022-10-04T01:42:02.890Z,24.71
2022-10-04T01:44:45.195Z,24.44
2022-10-04T01:47:44.526Z,24.14
2022-10-04T01:50:24.095Z,24.00
2022-10-04T01:53:20.343Z,23.71
2022-10-04T01:55:58.384Z,23.58
2022-10-04T01:58:33.560Z,23.50
2022-10-04T02:01:27.576Z,23.32
2022-10-04T02:04:06.532Z,23.18
2022-10-04T02:06:42.995Z,23.03
2022-10-04T02:09:19.779Z,22.75
2022-10-04T02:11:54.037Z,22.70
2022-10-04T02:14:31.779Z,22.65
2022-10-04T02:17:11.311Z,22.52
2022-10-04T02:19:43.440Z,22.43
2022-10-04T02:22:15.203Z,22.29
2022-10-04T02:24:47.952Z,22.23
2022-10-04T02:27:17.693Z,22.18
2022-10-04T02:29:46.856Z,22.05
2022-10-04T02:32:34.395Z,21.91
2022-10-04T02:35:05.217Z,21.83
2022-10-04T02:37:35.661Z,21.79
2022-10-04T02:40:13.630Z,21.59
2022-10-04T02:42:51.738Z,21.63
2022-10-04T02:45:30.420Z,21.46
2022-10-04T02:48:06.034Z,21.33
2022-10-04T02:50:54.090Z,21.32
2022-10-04T02:53:44.297Z,21.26
2022-10-04T02:56:18.942Z,21.10
2022-10-04T02:58:49.551Z,20.96
2022-10-04T03:01:28.581Z,20.91
2022-10-04T03:03:59.699Z,20.87
2022-10-04T03:06:33.982Z,20.82
2022-10-04T03:09:12.144Z,20.76
2022-10-04T03:11:44.974Z,20.65
2022-10-04T03:14:27.883Z,20.61
2022-10-04T03:17:05.070Z,20.61
2022-10-04T03:19:42.366Z,20.52
2022-10-04T03:22:14.885Z,20.41
2022-10-04T03:24:54.613Z,20.29
2022-10-04T03:27:27.970Z,20.28
2022-10-04T03:30:00.268Z,20.22
2022-10-04T03:32:31.951Z,20.19
2022-10-04T03:35:08.484Z,20.08
2022-10-04T03:37:39.415Z,19.96
2022-10-04T03:40:11.557Z,19.90
2022-10-04T03:42:43.964Z,19.86
2022-10-04T03:45:18.666Z,19.81
2022-10-04T03:47:51.535Z,19.72
2022-10-04T03:50:30.270Z,19.65
2022-10-04T03:53:05.224Z,19.61
2022-10-04T03:55:41.509Z,19.52
2022-10-04T03:58:14.053Z,19.48
2022-10-04T04:01:02.415Z,19.47
2022-10-04T04:03:39.403Z,19.37
2022-10-04T04:06:16.532Z,19.16
2022-10-04T04:08:52.431Z,19.25
2022-10-04T04:11:27.402Z,19.29
2022-10-04T04:14:26.185Z,19.27
2022-10-04T04:17:27.002Z,19.18
2022-10-04T04:20:07.510Z,19.11
2022-10-04T04:22:40.062Z,19.04
2022-10-04T04:25:16.150Z,18.97
2022-10-04T04:27:49.234Z,18.90
2022-10-04T04:30:20.445Z,18.87
2022-10-04T04:32:57.924Z,18.82
2022-10-04T04:35:35.325Z,18.79
2022-10-04T04:38:20.772Z,18.77
2022-10-04T04:40:50.690Z,18.74
2022-10-04T04:43:21.314Z,18.66
2022-10-04T04:46:03.210Z,18.57
2022-10-04T04:48:46.001Z,18.53
2022-10-04T04:51:25.960Z,18.48
2022-10-04T04:53:56.743Z,18.40
2022-10-04T04:56:29.954Z,18.39
2022-10-04T04:59:04.068Z,18.36
2022-10-04T05:01:44.578Z,18.27
2022-10-04T05:04:13.994Z,18.26
2022-10-04T05:06:50.035Z,18.23
2022-10-04T05:09:25.649Z,18.10
2022-10-04T05:12:00.574Z,18.09
2022-10-04T05:14:32.504Z,18.07
2022-10-04T05:17:02.041Z,18.00
2022-10-04T05:19:37.075Z,17.94
2022-10-04T05:22:20.429Z,17.94
2022-10-04T05:24:55.301Z,17.90
2022-10-04T05:27:39.105Z,17.83
2022-10-04T05:30:23.491Z,17.78
2022-10-04T05:33:03.460Z,17.78
2022-10-04T05:36:03.091Z,17.78
2022-10-04T05:38:47.898Z,17.65
2022-10-04T05:41:35.432Z,17.59
2022-10-04T05:44:21.736Z,17.53
2022-10-04T05:46:52.349Z,17.50
2022-10-04T05:49:23.539Z,17.45
2022-10-04T05:51:57.036Z,17.41
2022-10-04T05:54:35.034Z,17.35
2022-10-04T05:57:35.801Z,17.33
2022-10-04T06:00:16.154Z,17.34
2022-10-04T06:03:22.401Z,17.23
2022-10-04T06:05:56.986Z,17.19
2022-10-04T06:08:36.965Z,17.14
2022-10-04T06:11:13.166Z,17.09
2022-10-04T06:14:08.581Z,17.05
2022-10-04T06:17:21.409Z,17.01
2022-10-04T06:20:24.326Z,16.94
2022-10-04T06:23:01.400Z,16.91
2022-10-04T06:25:39.476Z,16.86
2022-10-04T06:28:25.304Z,16.82
2022-10-04T06:31:29.120Z,16.74
2022-10-04T06:34:10.738Z,16.71
2022-10-04T06:37:03.916Z,16.71
2022-10-04T06:39:51.316Z,16.67
2022-10-04T06:42:34.828Z,16.56
2022-10-04T06:45:19.019Z,16.51
2022-10-04T06:48:09.013Z,16.47
2022-10-04T06:50:51.787Z,16.47
2022-10-04T06:54:19.653Z,16.40
2022-10-04T06:57:19.915Z,16.40
2022-10-04T07:00:10.929Z,16.38
2022-10-04T07:03:01.578Z,16.28
2022-10-04T07:05:37.382Z,16.21
2022-10-04T07:08:31.934Z,16.18
2022-10-04T07:11:31.113Z,16.17
2022-10-04T07:14:17.147Z,16.24
2022-10-04T07:16:57.676Z,16.14
2022-10-04T07:19:49.606Z,16.09
2022-10-04T07:22:23.608Z,15.86
2022-10-04T07:24:58.675Z,15.61
2022-10-04T07:28:12.917Z,15.95
2022-10-04T07:31:10.701Z,15.99
2022-10-04T07:33:51.481Z,15.90
2022-10-04T07:36:49.973Z,15.59
2022-10-04T07:39:22.602Z,15.48
2022-10-04T07:41:56.774Z,15.88
2022-10-04T07:44:42.012Z,15.96
2022-10-04T07:47:32.737Z,15.97
2022-10-04T07:50:15.419Z,15.98
2022-10-04T07:53:11.779Z,15.95
2022-10-04T07:55:55.378Z,15.88
2022-10-04T07:58:54.946Z,15.89
2022-10-04T08:01:32.305Z,15.85
2022-10-04T08:04:21.486Z,15.59
2022-10-04T08:06:57.295Z,15.23
2022-10-04T08:09:44.395Z,14.97
2022-10-04T08:12:17.969Z,14.91
2022-10-04T08:15:16.671Z,15.32
2022-10-04T08:18:07.260Z,15.63
2022-10-04T08:20:51.346Z,15.55
2022-10-04T08:24:04.687Z,15.35
2022-10-04T08:27:10.852Z,15.02
2022-10-04T08:29:59.573Z,15.11
2022-10-04T08:32:51.895Z,15.12
2022-10-04T08:35:34.715Z,15.45
2022-10-04T08:38:28.001Z,15.32
2022-10-04T08:41:02.759Z,15.00
2022-10-04T08:44:06.478Z,14.92
2022-10-04T08:47:00.315Z,15.19
2022-10-04T08:49:35.415Z,15.31
2022-10-04T08:52:26.072Z,15.20
2022-10-04T08:55:22.748Z,14.52
2022-10-04T08:58:00.798Z,14.69
2022-10-04T09:00:50.799Z,14.61
2022-10-04T09:04:02.374Z,14.47
2022-10-04T09:06:34.151Z,14.19
2022-10-04T09:09:52.202Z,14.49
2022-10-04T09:12:53.305Z,14.87
2022-10-04T09:15:27.307Z,14.13
2022-10-04T09:18:14.811Z,14.57
2022-10-04T09:20:55.706Z,14.80
2022-10-04T09:23:45.689Z,14.77
2022-10-04T09:26:39.493Z,14.80
2022-10-04T09:29:27.558Z,14.45
2022-10-04T09:32:16.078Z,14.52
2022-10-04T09:35:07.270Z,14.85
2022-10-04T09:37:45.459Z,15.00
2022-10-04T09:40:37.412Z,15.03
2022-10-04T09:43:41.938Z,15.03
2022-10-04T09:46:32.617Z,15.12
2022-10-04T09:49:14.462Z,15.18
2022-10-04T09:52:20.098Z,14.99
2022-10-04T09:54:57.936Z,15.05
2022-10-04T09:57:45.500Z,15.00
2022-10-04T10:00:40.416Z,15.00
2022-10-04T10:03:31.324Z,14.89
2022-10-04T10:06:19.312Z,14.84
2022-10-04T10:09:04.653Z,14.83
2022-10-04T10:12:31.655Z,14.78
2022-10-04T10:15:40.591Z,14.73
2022-10-04T10:18:28.680Z,14.65
2022-10-04T10:21:25.690Z,14.60
2022-10-04T10:24:15.812Z,14.49
2022-10-04T10:27:03.073Z,14.42
2022-10-04T10:30:07.553Z,14.38
2022-10-04T10:32:55.366Z,14.31
2022-10-04T10:36:05.679Z,14.27
2022-10-04T10:39:10.605Z,14.21
2022-10-04T10:41:39.669Z,14.14
2022-10-04T10:44:34.243Z,14.19
2022-10-04T10:47:41.673Z,14.17
2022-10-04T10:50:59.346Z,14.12
2022-10-04T10:53:49.730Z,13.79
2022-10-04T10:56:45.060Z,13.53
2022-10-04T10:59:51.678Z,13.44
2022-10-04T11:02:50.378Z,13.69
2022-10-04T11:05:35.328Z,13.89
2022-10-04T11:08:28.555Z,13.89
2022-10-04T11:11:33.086Z,13.68
2022-10-04T11:14:48.401Z,13.84
2022-10-04T11:17:38.072Z,13.88
2022-10-04T11:20:44.289Z,13.79
2022-10-04T11:23:52.799Z,13.39
2022-10-04T11:26:49.449Z,12.79
2022-10-04T11:29:30.453Z,12.98
2022-10-04T11:32:02.828Z,13.35
2022-10-04T11:34:47.247Z,13.40
2022-10-04T11:37:22.549Z,13.48
2022-10-04T11:40:02.945Z,13.55
2022-10-04T11:42:52.363Z,13.56
2022-10-04T11:45:48.543Z,13.51
2022-10-04T11:48:49.706Z,13.54
2022-10-04T11:51:27.014Z,13.57
2022-10-04T11:54:29.510Z,13.56
2022-10-04T11:57:20.439Z,13.59
2022-10-04T12:00:21.230Z,13.58
2022-10-04T12:03:28.744Z,13.53
2022-10-04T12:06:23.675Z,12.85
2022-10-04T12:09:06.706Z,13.25
2022-10-04T12:12:08.740Z,13.38
2022-10-04T12:14:48.086Z,13.45
2022-10-04T12:17:53.962Z,13.42
2022-10-04T12:20:45.363Z,13.17
2022-10-04T12:23:23.977Z,13.42
2022-10-04T12:26:08.198Z,13.45
2022-10-04T12:29:03.431Z,13.38
2022-10-04T12:31:43.029Z,13.26
2022-10-04T12:34:18.089Z,13.05
2022-10-04T12:37:07.675Z,12.81
2022-10-04T12:39:49.015Z,12.96
2022-10-04T12:42:36.151Z,13.07
2022-10-04T12:45:08.024Z,12.97
2022-10-04T12:47:58.249Z,13.22
2022-10-04T12:50:27.318Z,13.15
2022-10-04T12:53:03.773Z,13.52
2022-10-04T12:55:53.792Z,13.53
2022-10-04T12:58:46.119Z,13.46
2022-10-04T13:01:30.992Z,13.37
2022-10-04T13:04:23.796Z,13.04
2022-10-04T13:07:27.154Z,13.16
2022-10-04T13:10:30.169Z,13.53
2022-10-04T13:13:27.111Z,13.54
2022-10-04T13:19:17.834Z,13.68
2022-10-04T13:22:08.265Z,13.73
2022-10-04T13:24:56.090Z,13.60
2022-10-04T13:27:44.791Z,13.68
2022-10-04T13:30:28.574Z,13.65
2022-10-04T13:33:37.432Z,13.76
2022-10-04T13:36:07.001Z,13.72
2022-10-04T13:38:55.421Z,13.68
2022-10-04T13:42:01.707Z,13.69
2022-10-04T13:44:57.537Z,13.71
2022-10-04T13:47:32.819Z,13.72
2022-10-04T13:50:28.112Z,13.78
2022-10-04T13:53:34.799Z,13.68
2022-10-04T13:56:42.885Z,13.40
2022-10-04T13:59:35.103Z,13.69
2022-10-04T14:02:32.214Z,13.73
2022-10-04T14:05:23.524Z,13.88
2022-10-04T14:08:20.297Z,13.53
2022-10-04T14:11:14.444Z,13.71
2022-10-04T14:13:54.375Z,13.58
2022-10-04T14:16:50.522Z,13.56
2022-10-04T14:19:43.967Z,13.25
2022-10-04T14:22:37.264Z,13.51
2022-10-04T14:25:24.370Z,13.49
2022-10-04T14:28:15.515Z,13.23
2022-10-04T14:31:03.292Z,13.28
2022-10-04T14:34:20.101Z,13.71
2022-10-04T14:37:07.672Z,13.82
2022-10-04T14:39:58.568Z,13.69
2022-10-04T14:42:57.195Z,13.62
2022-10-04T14:45:34.269Z,13.82
2022-10-04T14:48:39.708Z,13.82
2022-10-04T14:51:47.618Z,13.97
2022-10-04T14:54:41.060Z,13.98
2022-10-04T14:57:25.166Z,14.00
2022-10-04T15:00:07.591Z,13.93
2022-10-04T15:03:14.286Z,13.72
2022-10-04T15:06:01.129Z,13.90
2022-10-04T15:08:59.629Z,13.91
2022-10-04T15:11:44.327Z,13.86
2022-10-04T15:14:43.152Z,13.90
2022-10-04T15:17:27.734Z,13.83
2022-10-04T15:20:03.764Z,13.89
2022-10-04T15:22:46.012Z,13.92
2022-10-04T15:25:40.512Z,13.97
2022-10-04T15:28:28.118Z,13.92
2022-10-04T15:31:14.723Z,13.87
2022-10-04T15:34:25.360Z,13.92
2022-10-04T15:37:24.015Z,13.88
2022-10-04T15:40:20.480Z,13.62
2022-10-04T15:43:21.634Z,13.64
2022-10-04T15:46:11.067Z,13.72
2022-10-04T15:49:10.768Z,13.55
2022-10-04T15:52:27.214Z,13.60
2022-10-04T15:55:21.550Z,13.60
2022-10-04T15:58:22.272Z,13.51
2022-10-04T16:01:21.427Z,13.42
2022-10-04T16:04:41.542Z,13.55
2022-10-04T16:07:24.950Z,13.63
2022-10-04T16:10:19.665Z,13.54
2022-10-04T16:12:49.404Z,13.61
2022-10-04T16:15:22.301Z,13.58
2022-10-04T16:17:59.615Z,13.64
2022-10-04T16:20:49.192Z,13.64
2022-10-04T16:23:38.163Z,13.58
2022-10-04T16:26:11.604Z,13.58
2022-10-04T16:28:44.804Z,13.61
2022-10-04T16:31:46.400Z,13.67
2022-10-04T16:34:30.001Z,13.71
2022-10-04T16:37:06.040Z,13.74
2022-10-04T16:40:09.645Z,13.84
2022-10-04T16:43:05.845Z,13.93
2022-10-04T16:46:01.646Z,14.01
2022-10-04T16:48:43.001Z,13.85
2022-10-04T16:51:24.010Z,13.88
2022-10-04T16:54:11.174Z,13.87
2022-10-04T16:57:01.188Z,13.85
2022-10-04T16:59:39.630Z,13.85
2022-10-04T17:02:36.110Z,13.95
2022-10-04T17:05:08.625Z,13.73
2022-10-04T17:08:10.708Z,13.84
2022-10-04T17:10:54.924Z,13.76
2022-10-04T17:13:55.558Z,13.84
2022-10-04T17:16:51.409Z,13.91
2022-10-04T17:19:54.124Z,13.99
2022-10-04T17:22:35.368Z,13.96
2022-10-04T17:25:19.929Z,13.98
2022-10-04T17:27:57.217Z,14.05
2022-10-04T17:30:31.212Z,14.14
2022-10-04T17:33:39.479Z,14.18
2022-10-04T17:36:34.370Z,14.18
2022-10-04T17:39:34.073Z,14.03
2022-10-04T17:42:24.267Z,14.06
2022-10-04T17:45:14.229Z,14.22
2022-10-04T17:48:34.578Z,14.17
2022-10-04T17:51:42.234Z,14.26
2022-10-04T17:54:34.746Z,14.37
2022-10-04T17:57:06.862Z,14.32
2022-10-04T17:59:53.828Z,14.40
2022-10-04T18:02:25.907Z,14.46
2022-10-04T18:05:00.890Z,14.38
2022-10-04T18:07:40.297Z,14.18
2022-10-04T18:10:34.757Z,14.10
2022-10-04T18:13:26.489Z,14.13
2022-10-04T18:16:23.324Z,14.10
2022-10-04T18:18:52.534Z,14.25
2022-10-04T18:21:32.652Z,14.33
2022-10-04T18:24:20.427Z,14.26
2022-10-04T18:27:06.626Z,14.28
2022-10-04T18:29:40.173Z,14.30
2022-10-04T18:32:27.979Z,14.40
2022-10-04T18:35:03.618Z,14.27
2022-10-04T18:37:39.651Z,14.25
2022-10-04T18:40:22.579Z,14.43
2022-10-04T18:43:02.639Z,14.23
2022-10-04T18:45:36.110Z,14.42
2022-10-04T18:48:16.603Z,14.24
2022-10-04T18:50:49.285Z,14.23
2022-10-04T18:53:45.725Z,14.29
2022-10-04T18:56:16.329Z,14.36
2022-10-04T18:59:25.372Z,14.45
2022-10-04T19:02:26.416Z,14.52
2022-10-04T19:05:18.210Z,14.32
2022-10-04T19:08:16.619Z,14.49
2022-10-04T19:11:04.157Z,14.51
2022-10-04T19:13:48.701Z,14.47
2022-10-04T19:16:45.403Z,14.42
2022-10-04T19:19:40.647Z,14.56
2022-10-04T19:22:24.600Z,14.49
2022-10-04T19:25:06.613Z,14.55
2022-10-04T19:27:41.537Z,14.50
2022-10-04T19:30:20.922Z,14.63
2022-10-04T19:33:12.551Z,14.47
2022-10-04T19:35:44.284Z,14.58
2022-10-04T19:38:31.220Z,14.74
2022-10-04T19:41:19.923Z,14.72
2022-10-04T19:43:49.110Z,14.78
2022-10-04T19:46:30.715Z,14.84
2022-10-04T19:49:00.154Z,14.76
2022-10-04T19:51:37.297Z,14.80
2022-10-04T19:54:16.651Z,14.86
2022-10-04T19:56:49.472Z,15.01
2022-10-04T19:59:49.337Z,15.20
2022-10-04T20:02:19.198Z,15.39
2022-10-04T20:04:49.854Z,15.31
2022-10-04T20:07:28.395Z,15.40
2022-10-04T20:10:24.343Z,15.45
2022-10-04T20:13:09.625Z,15.42
2022-10-04T20:15:38.761Z,15.34
2022-10-04T20:18:33.686Z,14.98
2022-10-04T20:21:04.501Z,15.20
2022-10-04T20:36:47.894Z,15.72
2022-10-04T20:39:42.559Z,15.67
2022-10-04T20:42:29.701Z,15.94
2022-10-04T20:45:00.259Z,16.29
2022-10-04T20:47:40.861Z,16.16
2022-10-04T20:50:30.445Z,16.35
2022-10-04T20:53:07.602Z,16.69
2022-10-04T20:55:39.853Z,16.70
2022-10-04T20:58:33.139Z,16.59
2022-10-04T21:01:38.034Z,16.86
2022-10-04T21:04:47.492Z,17.10
2022-10-04T21:07:22.756Z,17.20
2022-10-04T21:09:54.199Z,17.17
2022-10-04T21:12:39.785Z,17.06
2022-10-04T21:15:21.854Z,17.84
2022-10-04T21:18:06.015Z,17.97
2022-10-04T21:20:46.138Z,18.13
2022-10-04T21:23:21.920Z,17.98
2022-10-04T21:25:51.714Z,18.11
2022-10-04T21:28:36.707Z,18.51
2022-10-04T21:31:06.180Z,18.12
2022-10-04T21:33:36.410Z,18.02
2022-10-04T21:36:06.611Z,18.24
2022-10-04T21:38:35.997Z,18.76
2022-10-04T21:41:05.679Z,18.96
2022-10-04T21:43:35.262Z,19.26
2022-10-04T21:46:04.516Z,19.11
2022-10-04T21:48:33.559Z,19.19
2022-10-04T21:51:02.683Z,19.69
2022-10-04T21:53:31.756Z,19.73
2022-10-04T21:56:00.900Z,18.65
2022-10-04T21:58:30.244Z,19.31
2022-10-04T22:00:59.483Z,19.50
2022-10-04T22:03:29.573Z,19.06
2022-10-04T22:05:58.706Z,18.41
2022-10-04T22:08:28.311Z,19.09
2022-10-04T22:10:57.916Z,19.09
2022-10-04T22:13:27.819Z,18.53
2022-10-04T22:15:56.859Z,18.22
2022-10-04T22:18:26.047Z,18.02
2022-10-04T22:20:55.079Z,18.20
2022-10-04T22:23:26.675Z,18.09
2022-10-04T22:25:56.681Z,17.90
2022-10-04T22:28:31.288Z,18.26
2022-10-04T22:31:00.567Z,18.49
2022-10-04T22:33:36.943Z,18.57
2022-10-04T22:36:21.258Z,18.43
2022-10-04T22:39:05.121Z,18.16
2022-10-04T22:41:37.354Z,18.57
2022-10-04T22:44:26.372Z,18.74
2022-10-04T22:47:01.290Z,18.85
2022-10-04T22:49:33.660Z,19.20
2022-10-04T22:52:07.539Z,19.26
2022-10-04T22:54:37.400Z,19.49
2022-10-04T22:57:06.639Z,19.56
2022-10-04T22:59:41.980Z,19.56
2022-10-04T23:02:31.629Z,18.97
2022-10-04T23:05:23.261Z,19.18
2022-10-04T23:07:58.846Z,19.58
2022-10-04T23:10:28.504Z,19.43
2022-10-04T23:12:58.331Z,19.85
2022-10-04T23:15:30.639Z,19.78
2022-10-04T23:18:00.091Z,19.38
2022-10-04T23:20:30.817Z,19.48
2022-10-04T23:23:01.176Z,20.00
2022-10-04T23:25:31.261Z,19.47
2022-10-04T23:28:04.248Z,19.74
2022-10-04T23:30:33.439Z,19.96
2022-10-04T23:33:03.364Z,19.95
2022-10-04T23:35:34.760Z,20.33
2022-10-04T23:38:07.907Z,20.43
2022-10-04T23:40:37.234Z,20.35
2022-10-04T23:43:07.315Z,20.77
2022-10-04T23:45:42.574Z,20.39
2022-10-04T23:48:17.797Z,20.55
2022-10-04T23:50:47.360Z,20.43
2022-10-04T23:53:29.203Z,21.35
2022-10-04T23:56:03.026Z,21.27
2022-10-04T23:58:38.904Z,21.03
